createdAt,value
2023-02-13T00:01:21.862Z,83.47
2023-02-13T00:06:29.875Z,83.45
2023-02-13T00:11:38.405Z,83.57
2023-02-13T00:16:45.855Z,83.63
2023-02-13T00:21:54.580Z,83.67
2023-02-13T00:27:02.831Z,83.71
2023-02-13T00:32:11.562Z,83.81
2023-02-13T00:37:20.227Z,83.82
2023-02-13T00:42:28.662Z,83.80
2023-02-13T00:47:36.183Z,83.91
2023-02-13T00:52:43.504Z,83.89
2023-02-13T00:57:55.199Z,83.92
2023-02-13T01:03:02.557Z,83.91
2023-02-13T01:08:10.531Z,83.91
2023-02-13T01:13:19.913Z,83.94
2023-02-13T01:18:28.052Z,83.95
2023-02-13T01:23:37.965Z,83.96
2023-02-13T01:28:46.578Z,83.99
2023-02-13T01:33:57.848Z,83.95
2023-02-13T01:39:07.334Z,83.92
2023-02-13T01:44:45.256Z,83.95
2023-02-13T01:50:03.986Z,83.91
2023-02-13T01:55:13.978Z,83.95
2023-02-13T02:00:22.983Z,84.00
2023-02-13T02:05:34.276Z,84.00
2023-02-13T02:10:42.879Z,83.97
2023-02-13T02:15:51.915Z,83.99
2023-02-13T02:21:51.361Z,83.96
2023-02-13T02:27:16.356Z,83.86
2023-02-13T02:32:51.620Z,83.85
2023-02-13T02:38:15.884Z,83.79
2023-02-13T02:43:36.015Z,83.77
2023-02-13T02:49:10.445Z,83.77
2023-02-13T02:54:45.912Z,83.71
2023-02-13T03:00:15.438Z,83.62
2023-02-13T03:05:48.931Z,83.56
2023-02-13T03:11:18.915Z,83.51
2023-02-13T03:16:47.388Z,83.44
2023-02-13T03:22:18.780Z,83.40
2023-02-13T03:27:53.098Z,83.35
2023-02-13T03:33:19.741Z,83.30
2023-02-13T03:38:32.013Z,83.25
2023-02-13T03:43:45.134Z,83.20
2023-02-13T03:49:10.341Z,83.16
2023-02-13T03:54:42.436Z,83.12
2023-02-13T03:59:51.220Z,83.04
2023-02-13T04:05:06.235Z,82.97
2023-02-13T04:10:17.045Z,82.91
2023-02-13T04:15:31.851Z,82.87
2023-02-13T04:20:41.266Z,82.78
2023-02-13T04:25:52.807Z,82.69
2023-02-13T04:31:02.205Z,82.60
2023-02-13T04:36:11.492Z,82.50
2023-02-13T04:41:19.817Z,82.41
2023-02-13T04:46:28.628Z,82.33
2023-02-13T04:51:37.437Z,82.27
2023-02-13T04:56:45.908Z,82.19
2023-02-13T05:01:54.907Z,82.13
2023-02-13T05:07:03.017Z,82.07
2023-02-13T05:12:12.028Z,82.01
2023-02-13T05:17:19.722Z,81.96
2023-02-13T05:22:45.488Z,81.90
2023-02-13T05:27:54.149Z,81.85
2023-02-13T05:33:03.131Z,81.79
2023-02-13T05:38:11.627Z,81.76
2023-02-13T05:43:21.017Z,81.69
2023-02-13T05:48:29.601Z,81.64
2023-02-13T05:53:38.026Z,81.59
2023-02-13T05:58:46.975Z,81.55
2023-02-13T06:03:58.417Z,81.54
2023-02-13T06:09:08.795Z,81.50
2023-02-13T06:14:17.959Z,81.50
2023-02-13T06:19:26.486Z,81.51
2023-02-13T06:24:34.776Z,81.54
2023-02-13T06:29:43.206Z,81.57
2023-02-13T06:34:50.606Z,81.60
2023-02-13T06:39:57.932Z,81.61
2023-02-13T06:45:05.561Z,81.66
2023-02-13T06:50:19.546Z,81.69
2023-02-13T06:55:27.305Z,81.71
2023-02-13T07:00:34.973Z,81.75
2023-02-13T07:05:45.218Z,81.77
2023-02-13T07:10:52.531Z,81.81
2023-02-13T07:16:04.943Z,81.88
2023-02-13T07:21:12.621Z,81.90
2023-02-13T07:26:20.643Z,81.93
2023-02-13T07:31:30.033Z,81.93
2023-02-13T07:36:38.512Z,81.95
2023-02-13T07:41:47.340Z,81.98
2023-02-13T07:46:57.686Z,82.04
2023-02-13T07:52:06.286Z,82.09
2023-02-13T07:57:14.462Z,82.14
2023-02-13T08:02:22.040Z,82.17
2023-02-13T08:07:30.519Z,82.13
2023-02-13T08:12:39.960Z,82.09
2023-02-13T08:17:47.678Z,82.04
2023-02-13T08:22:55.943Z,81.99
2023-02-13T08:28:05.240Z,81.91
2023-02-13T08:33:14.278Z,81.87
2023-02-13T08:38:22.628Z,81.82
2023-02-13T08:43:30.987Z,81.74
2023-02-13T08:48:40.268Z,81.66
2023-02-13T08:53:48.957Z,81.57
2023-02-13T08:58:57.264Z,81.54
2023-02-13T09:04:04.757Z,81.49
2023-02-13T09:09:12.159Z,81.43
2023-02-13T09:14:19.601Z,81.45
2023-02-13T09:19:28.740Z,81.36
2023-02-13T09:24:37.125Z,81.54
2023-02-13T09:29:45.492Z,81.59
2023-02-13T09:34:53.004Z,81.65
2023-02-13T09:40:01.771Z,81.46
2023-02-13T09:45:13.956Z,81.38
2023-02-13T09:50:22.716Z,81.30
2023-02-13T09:55:41.065Z,81.25
2023-02-13T10:00:55.907Z,80.89
2023-02-13T10:06:15.498Z,80.63
2023-02-13T10:11:39.304Z,80.37
2023-02-13T10:16:50.608Z,80.06
2023-02-13T10:22:00.538Z,79.73
2023-02-13T10:27:16.560Z,79.30
2023-02-13T10:32:32.929Z,79.19
2023-02-13T10:37:42.431Z,79.01
2023-02-13T10:43:03.417Z,78.99
2023-02-13T10:48:26.859Z,78.74
2023-02-13T10:53:47.907Z,78.48
2023-02-13T10:59:14.209Z,78.44
2023-02-13T11:04:23.577Z,78.37
2023-02-13T11:09:35.991Z,78.25
2023-02-13T11:14:55.844Z,78.07
2023-02-13T11:20:06.948Z,78.35
2023-02-13T11:25:22.699Z,77.82
2023-02-13T11:30:39.206Z,77.60
2023-02-13T11:35:48.718Z,77.44
2023-02-13T11:41:09.363Z,77.22
2023-02-13T11:46:22.658Z,76.98
2023-02-13T11:51:47.007Z,76.62
2023-02-13T11:57:05.283Z,76.47
2023-02-13T12:02:22.481Z,76.44
2023-02-13T12:07:32.931Z,76.33
2023-02-13T12:12:47.889Z,76.31
2023-02-13T12:18:12.033Z,76.26
2023-02-13T12:23:35.216Z,76.17
2023-02-13T12:28:56.574Z,76.07
2023-02-13T12:34:42.077Z,75.97
2023-02-13T12:40:07.334Z,75.87
2023-02-13T12:45:28.003Z,75.97
2023-02-13T12:50:55.710Z,76.00
2023-02-13T12:56:38.714Z,75.84
2023-02-13T13:02:08.014Z,75.81
2023-02-13T13:07:31.386Z,75.78
2023-02-13T13:12:53.710Z,75.79
2023-02-13T13:18:08.511Z,75.79
2023-02-13T13:23:21.800Z,76.00
2023-02-13T13:28:36.788Z,75.81
2023-02-13T13:33:47.862Z,75.75
2023-02-13T13:39:06.016Z,75.71
2023-02-13T13:44:37.503Z,75.71
2023-02-13T13:49:54.004Z,75.72
2023-02-13T13:55:04.799Z,75.63
2023-02-13T14:00:31.190Z,75.56
2023-02-13T14:06:04.605Z,75.55
2023-02-13T14:11:41.124Z,75.57
2023-02-13T14:16:49.752Z,75.58
2023-02-13T14:22:19.938Z,75.54
2023-02-13T14:27:30.792Z,75.59
2023-02-13T14:32:41.556Z,75.59
2023-02-13T14:37:58.133Z,75.63
2023-02-13T14:43:21.642Z,75.62
2023-02-13T14:48:38.357Z,75.64
2023-02-13T14:53:56.293Z,75.65
2023-02-13T14:59:13.317Z,75.64
2023-02-13T15:04:28.133Z,75.63
2023-02-13T15:09:41.698Z,75.62
2023-02-13T15:14:50.119Z,75.56
2023-02-13T15:20:05.194Z,75.53
2023-02-13T15:25:28.172Z,75.52
2023-02-13T15:30:38.077Z,75.52
2023-02-13T15:35:47.619Z,75.48
2023-02-13T15:40:57.486Z,75.39
2023-02-13T15:46:11.097Z,75.27
2023-02-13T15:51:25.273Z,75.15
2023-02-13T15:56:33.756Z,75.09
2023-02-13T16:01:44.913Z,75.03
2023-02-13T16:06:59.853Z,74.99
2023-02-13T16:12:18.645Z,74.92
2023-02-13T16:17:32.652Z,74.77
2023-02-13T16:22:45.891Z,74.55
2023-02-13T16:27:55.619Z,74.40
2023-02-13T16:33:29.164Z,74.30
2023-02-13T16:38:39.256Z,74.26
2023-02-13T16:43:49.701Z,74.18
2023-02-13T16:49:17.694Z,74.17
2023-02-13T16:54:31.414Z,74.21
2023-02-13T16:59:53.786Z,74.21
2023-02-13T17:05:01.296Z,74.21
2023-02-13T17:10:24.411Z,74.35
2023-02-13T17:15:33.418Z,74.19
2023-02-13T17:20:42.759Z,74.20
2023-02-13T17:25:52.504Z,74.24
2023-02-13T17:31:01.675Z,74.26
2023-02-13T17:36:13.784Z,74.30
2023-02-13T17:41:21.755Z,74.32
2023-02-13T17:46:29.574Z,74.32
2023-02-13T17:51:38.688Z,74.33
2023-02-13T17:56:46.541Z,74.33
2023-02-13T18:01:54.486Z,74.35
2023-02-13T18:07:03.556Z,74.37
2023-02-13T18:12:20.165Z,74.38
2023-02-13T18:17:28.043Z,74.43
2023-02-13T18:22:36.494Z,74.45
2023-02-13T18:27:44.354Z,74.41
2023-02-13T18:32:55.606Z,74.46
2023-02-13T18:38:04.989Z,74.50
2023-02-13T18:43:16.238Z,74.55
2023-02-13T18:48:28.152Z,74.60
2023-02-13T18:53:35.846Z,74.65
2023-02-13T18:58:43.454Z,74.71
2023-02-13T19:03:52.837Z,74.79
2023-02-13T19:09:01.470Z,74.87
2023-02-13T19:14:14.372Z,74.92
2023-02-13T19:19:22.442Z,74.98
2023-02-13T19:24:30.764Z,75.02
2023-02-13T19:29:39.078Z,75.06
2023-02-13T19:34:47.558Z,75.11
2023-02-13T19:39:55.398Z,75.16
2023-02-13T19:45:03.154Z,75.21
2023-02-13T19:50:12.423Z,75.26
2023-02-13T19:55:25.661Z,75.32
2023-02-13T20:00:35.308Z,75.37
2023-02-13T20:05:45.071Z,75.45
2023-02-13T20:10:52.844Z,75.50
2023-02-13T20:16:00.628Z,75.59
2023-02-13T20:21:12.497Z,75.65
2023-02-13T20:26:20.913Z,75.72
2023-02-13T20:31:30.945Z,75.81
2023-02-13T20:36:38.734Z,75.87
2023-02-13T20:41:50.962Z,75.95
2023-02-13T20:46:57.798Z,76.02
2023-02-13T20:52:07.081Z,75.96
2023-02-13T20:57:15.706Z,76.09
2023-02-13T21:02:24.656Z,76.15
2023-02-13T21:07:33.549Z,76.21
2023-02-13T21:12:41.575Z,76.29
2023-02-13T21:17:49.815Z,76.37
2023-02-13T21:22:59.902Z,76.42
2023-02-13T21:28:08.533Z,76.48
2023-02-13T21:33:16.276Z,76.50
2023-02-13T21:38:24.522Z,76.56
2023-02-13T21:43:32.618Z,76.62
2023-02-13T21:48:40.203Z,76.66
2023-02-13T21:53:50.450Z,76.73
2023-02-13T21:58:59.089Z,76.79
2023-02-13T22:04:09.699Z,76.86
2023-02-13T22:09:19.097Z,76.93
2023-02-13T22:14:26.692Z,76.98
2023-02-13T22:19:34.560Z,77.06
2023-02-13T22:24:42.346Z,77.13
2023-02-13T22:29:52.517Z,77.19
2023-02-13T22:35:00.121Z,77.24
2023-02-13T22:40:10.217Z,77.28
2023-02-13T22:45:18.021Z,77.33
2023-02-13T22:50:28.526Z,77.38
2023-02-13T22:55:36.956Z,77.41
2023-02-13T23:00:45.474Z,77.45
2023-02-13T23:05:54.077Z,77.52
2023-02-13T23:11:23.596Z,77.56
2023-02-13T23:16:52.846Z,77.59
2023-02-13T23:22:01.898Z,77.60
2023-02-13T23:27:10.156Z,77.65
2023-02-13T23:32:18.783Z,77.66
2023-02-13T23:37:26.660Z,77.70
2023-02-13T23:42:34.239Z,77.71
2023-02-13T23:47:42.954Z,77.73
2023-02-13T23:52:50.655Z,77.74
2023-02-13T23:57:59.176Z,77.75
